Time;durP1;ratioP1;P1;durP2;ratioP2;P2;SDS_P1;SDS_P2;PMS_P1;PMS_P2;Temp;Humidity;BMP_temperature;BMP_pressure;BME280_temperature;BME280_humidity;BME280_pressure;Samples;Min_cycle;Max_cycle;Signal;HPM_P1;HPM_P2
2022/09/14 00:00:16;;;;;;;;;;;;;;;20.90;63.25;100174.88;4977231;28;19922;-74
2022/09/14 00:02:42;;;;;;;;;;;;;;;20.88;63.08;100174.53;4960225;28;20012;-74
2022/09/14 00:05:07;;;;;;;;;;;;;;;20.86;63.69;100168.47;4960679;28;20062;-74
2022/09/14 00:07:32;;;;;;;;;;;;;;;20.87;63.82;100172.91;4960675;28;19988;-74
2022/09/14 00:09:58;;;;;;;;;;;;;;;20.89;64.25;100178.94;4977710;28;19918;-74
2022/09/14 00:12:23;;;;;;;;;;;;;;;20.96;63.42;100166.69;4960301;28;19922;-74
2022/09/14 00:14:49;;;;;;;;;;;;;;;21.02;63.21;100169.81;4959982;28;20002;-74
2022/09/14 00:17:14;;;;;;;;;;;;;;;21.01;63.23;100169.00;4959883;28;19918;-74
2022/09/14 00:19:39;;;;;;;;;;;;;;;20.93;63.32;100174.00;4977787;28;19954;-74
2022/09/14 00:22:05;;;;;;;;;;;;;;;20.81;63.52;100171.81;4960347;28;20361;-74
2022/09/14 00:24:31;;;;;;;;;;;;;;;20.75;63.84;100170.72;4959786;28;19922;-74
2022/09/14 00:26:57;;;;;;;;;;;;;;;20.69;64.44;100163.97;4959752;28;19922;-74
2022/09/14 00:29:22;;;;;;;;;;;;;;;20.71;64.17;100166.34;4960267;28;19922;-73
2022/09/14 00:31:48;;;;;;;;;;;;;;;20.69;64.61;100169.63;4977332;28;19925;-74
2022/09/14 00:34:15;;;;;;;;;;;;;;;20.76;64.29;100161.00;4959914;28;19929;-74
2022/09/14 00:36:43;;;;;;;;;;;;;;;20.71;64.26;100158.66;4960417;28;20287;-73
2022/09/14 00:39:09;;;;;;;;;;;;;;;20.63;65.13;100152.38;4959314;28;19929;-73
2022/09/14 00:41:36;;;;;;;;;;;;;;;20.59;65.45;100154.47;4976800;28;19919;-72
2022/09/14 00:44:11;;;;;;;;;;;;;;;20.60;65.42;100150.38;4960001;28;19977;-74
2022/09/14 00:46:36;;;;;;;;;;;;;;;20.59;65.43;100148.00;4959385;28;19980;-74
2022/09/14 00:49:04;;;;;;;;;;;;;;;20.61;65.78;100151.19;4976725;28;19969;-74
2022/09/14 00:51:31;;;;;;;;;;;;;;;20.64;65.66;100156.00;4959221;28;19918;-73
2022/09/14 00:53:57;;;;;;;;;;;;;;;20.67;65.91;100155.94;4958328;28;19919;-75
2022/09/14 00:56:22;;;;;;;;;;;;;;;20.60;65.96;100153.22;4959151;28;19968;-74
2022/09/14 00:58:49;;;;;;;;;;;;;;;20.55;66.37;100150.09;4959212;28;19922;-74
2022/09/14 01:01:14;;;;;;;;;;;;;;;20.55;66.80;100156.53;4976154;28;20365;-74
2022/09/14 01:03:40;;;;;;;;;;;;;;;20.59;66.66;100151.63;4959321;28;19918;-74
2022/09/14 01:06:25;;;;;;;;;;;;;;;20.61;67.08;100145.53;4959297;28;19918;-74
2022/09/14 01:08:59;;;;;;;;;;;;;;;20.68;67.04;100145.41;4976339;28;20301;-74
2022/09/14 01:11:30;;;;;;;;;;;;;;;20.71;66.76;100144.53;4959189;28;19922;-74
2022/09/14 01:14:06;;;;;;;;;;;;;;;20.75;67.00;100139.63;4976257;28;19965;-74
2022/09/14 01:16:40;;;;;;;;;;;;;;;20.80;66.88;100130.63;4976777;28;20353;-74
2022/09/14 01:19:13;;;;;;;;;;;;;;;20.77;67.06;100133.53;4958798;28;20012;-74
2022/09/14 01:21:41;;;;;;;;;;;;;;;20.83;66.83;100135.44;4958676;28;19919;-74
2022/09/14 01:24:07;;;;;;;;;;;;;;;20.75;66.96;100139.63;4975776;28;19925;-74
2022/09/14 01:26:32;;;;;;;;;;;;;;;20.73;66.96;100138.47;4958686;28;19965;-74
2022/09/14 01:29:00;;;;;;;;;;;;;;;20.71;67.25;100141.72;4959144;28;19953;-74
2022/09/14 01:31:28;;;;;;;;;;;;;;;20.56;68.54;100129.91;4976220;28;19918;-74
2022/09/14 01:34:00;;;;;;;;;;;;;;;20.53;68.38;100129.97;4959095;28;19922;-74
2022/09/14 01:36:27;;;;;;;;;;;;;;;20.54;68.09;100123.88;4959061;28;19942;-74
2022/09/14 01:38:53;;;;;;;;;;;;;;;20.54;68.03;100123.88;4958758;28;19918;-74
2022/09/14 01:41:21;;;;;;;;;;;;;;;20.56;68.28;100126.25;4958917;28;20281;-73
2022/09/14 01:44:03;;;;;;;;;;;;;;;20.56;68.71;100127.06;4975725;28;19942;-74
2022/09/14 01:46:41;;;;;;;;;;;;;;;20.54;69.97;100117.41;4958344;28;19926;-74
2022/09/14 01:49:10;;;;;;;;;;;;;;;20.48;70.74;100116.31;4975654;28;19922;-74
2022/09/14 01:51:46;;;;;;;;;;;;;;;20.49;71.27;100118.72;4975924;28;19918;-74
2022/09/14 01:54:41;;;;;;;;;;;;;;;20.39;72.09;100123.28;4976190;28;19918;-74
2022/09/14 01:57:09;;;;;;;;;;;;;;;20.35;72.36;100116.13;4945919;28;19919;-74
2022/09/14 01:59:43;;;;;;;;;;;;;;;20.28;72.77;100105.75;4975779;28;19970;-74
2022/09/14 02:02:14;;;;;;;;;;;;;;;20.39;72.54;100111.19;4958383;28;19925;-74
2022/09/14 02:04:49;;;;;;;;;;;;;;;20.33;73.08;100119.38;4957765;28;19918;-74
2022/09/14 02:07:14;;;;;;;;;;;;;;;20.33;73.25;100110.91;4958358;28;19922;-74
2022/09/14 02:09:40;;;;;;;;;;;;;;;20.30;73.60;100123.06;4958929;28;20246;-74
2022/09/14 02:12:06;;;;;;;;;;;;;;;20.29;73.50;100115.81;4958310;28;20357;-74
2022/09/14 02:14:31;;;;;;;;;;;;;;;20.29;73.49;100123.47;4958579;28;20357;-74
2022/09/14 02:16:57;;;;;;;;;;;;;;;20.32;73.43;100123.44;4975541;28;19941;-74
2022/09/14 02:19:24;;;;;;;;;;;;;;;20.29;73.35;100117.84;4957918;28;19918;-74
2022/09/14 02:21:50;;;;;;;;;;;;;;;20.22;73.62;100113.13;4958215;28;20005;-74
2022/09/14 02:24:16;;;;;;;;;;;;;;;20.21;73.68;100113.56;4957657;28;20369;-74
2022/09/14 02:26:41;;;;;;;;;;;;;;;20.30;73.20;100114.59;4975530;28;19918;-74
2022/09/14 02:29:07;;;;;;;;;;;;;;;20.30;73.10;100119.44;4957856;28;20015;-74
2022/09/14 02:31:51;;;;;;;;;;;;;;;20.29;73.08;100124.28;4958717;28;19968;-74
2022/09/14 02:34:16;;;;;;;;;;;;;;;20.25;73.22;100119.94;4957824;28;20443;-74
2022/09/14 02:36:45;;;;;;;;;;;;;;;20.26;73.17;100118.72;4958073;28;20013;-74
2022/09/14 02:39:29;;;;;;;;;;;;;;;20.26;72.76;100118.72;4975435;28;19961;-74
2022/09/14 02:42:20;;;;;;;;;;;;;;;20.27;72.93;100118.28;4957684;28;20428;-74
2022/09/14 02:45:04;;;;;;;;;;;;;;;20.34;71.58;100109.66;4935315;28;19997;-74
2022/09/14 02:47:36;;;;;;;;;;;;;;;20.32;70.58;100112.13;4957700;28;20399;-74
2022/09/14 02:50:11;;;;;;;;;;;;;;;20.37;70.44;100105.19;4974778;28;19918;-74
2022/09/14 02:52:41;;;;;;;;;;;;;;;20.39;70.11;100106.34;4957667;28;19973;-74
2022/09/14 02:55:09;;;;;;;;;;;;;;;20.33;70.04;100108.06;4958358;28;19918;-74
2022/09/14 02:57:53;;;;;;;;;;;;;;;20.38;70.21;100104.75;4958153;28;19941;-74
2022/09/14 03:00:19;;;;;;;;;;;;;;;20.43;69.54;100103.47;4957443;28;19925;-74
2022/09/14 03:02:44;;;;;;;;;;;;;;;20.47;68.94;100109.09;4957820;28;19918;-74
2022/09/14 03:05:10;;;;;;;;;;;;;;;20.43;68.90;100117.59;4957828;28;19918;-74
2022/09/14 03:07:35;;;;;;;;;;;;;;;20.41;68.89;100114.41;4974548;28;19918;-74
2022/09/14 03:10:00;;;;;;;;;;;;;;;20.38;68.67;100113.22;4958122;28;19925;-74
2022/09/14 03:12:26;;;;;;;;;;;;;;;20.34;68.60;100115.31;4957812;28;20348;-74
2022/09/14 03:14:51;;;;;;;;;;;;;;;20.33;69.64;100118.56;4957998;28;20341;-74
2022/09/14 03:17:16;;;;;;;;;;;;;;;20.38;68.95;100121.69;4960552;28;20288;-74
2022/09/14 03:19:42;;;;;;;;;;;;;;;20.34;69.34;100114.50;4961007;28;20266;-74
2022/09/14 03:22:07;;;;;;;;;;;;;;;20.29;69.32;100107.31;4977914;28;19992;-73
2022/09/14 03:24:33;;;;;;;;;;;;;;;20.33;69.37;100099.59;4960965;28;19966;-74
2022/09/14 03:26:58;;;;;;;;;;;;;;;20.33;69.19;100102.41;4977967;28;20056;-74
2022/09/14 03:29:23;;;;;;;;;;;;;;;20.33;68.73;100108.06;4961085;28;20370;-74
2022/09/14 03:31:49;;;;;;;;;;;;;;;20.38;67.90;100103.94;4960776;28;20428;-74
2022/09/14 03:34:14;;;;;;;;;;;;;;;20.39;67.85;100103.50;4961006;28;19918;-75
2022/09/14 03:36:39;;;;;;;;;;;;;;;20.30;67.99;100100.47;4960949;28;19968;-74
2022/09/14 03:39:05;;;;;;;;;;;;;;;20.24;67.90;100096.56;4960362;28;19965;-74
2022/09/14 03:41:30;;;;;;;;;;;;;;;20.19;68.34;100094.22;4961113;28;19924;-73
2022/09/14 03:43:55;;;;;;;;;;;;;;;20.17;68.42;100088.19;4960544;28;19918;-73
2022/09/14 03:46:22;;;;;;;;;;;;;;;20.13;68.42;100087.44;4960541;28;19919;-74
2022/09/14 03:48:48;;;;;;;;;;;;;;;20.08;68.97;100090.75;4978659;28;19918;-74
2022/09/14 03:51:14;;;;;;;;;;;;;;;20.08;69.38;100087.94;4960987;28;19977;-74
2022/09/14 03:53:40;;;;;;;;;;;;;;;20.10;69.38;100089.13;4960592;28;19918;-75
2022/09/14 03:56:09;;;;;;;;;;;;;;;20.07;68.90;100081.50;4960016;28;19926;-74
2022/09/14 03:58:35;;;;;;;;;;;;;;;20.12;68.81;100077.38;4960012;28;19922;-74
2022/09/14 04:01:04;;;;;;;;;;;;;;;20.07;68.78;100077.88;4960162;28;19926;-73
2022/09/14 04:03:30;;;;;;;;;;;;;;;19.94;69.36;100085.38;4978148;28;19957;-74
2022/09/14 04:05:55;;;;;;;;;;;;;;;19.94;69.57;100086.16;4977228;28;20341;-74
2022/09/14 04:08:21;;;;;;;;;;;;;;;19.94;70.32;100085.38;4960022;28;19925;-74
2022/09/14 04:10:46;;;;;;;;;;;;;;;19.97;70.03;100082.47;4960503;28;19922;-74
2022/09/14 04:13:11;;;;;;;;;;;;;;;20.00;70.11;100098.56;4977026;28;19918;-74
2022/09/14 04:15:37;;;;;;;;;;;;;;;19.96;70.32;100091.38;4960253;28;19929;-73
2022/09/14 04:18:02;;;;;;;;;;;;;;;20.03;70.25;100085.63;4960469;28;19918;-74
2022/09/14 04:20:27;;;;;;;;;;;;;;;19.96;70.78;100091.38;4960085;28;20420;-74
2022/09/14 04:22:53;;;;;;;;;;;;;;;19.96;70.68;100095.00;4960685;28;19926;-74
2022/09/14 04:25:18;;;;;;;;;;;;;;;19.99;70.70;100087.72;4977435;28;20039;-74
2022/09/14 04:27:43;;;;;;;;;;;;;;;20.04;69.91;100081.56;4959405;28;19950;-74
2022/09/14 04:30:09;;;;;;;;;;;;;;;20.10;69.84;100083.47;4977671;28;20012;-74
2022/09/14 04:32:34;;;;;;;;;;;;;;;20.17;69.97;100087.38;4959884;28;19930;-74
2022/09/14 04:35:00;;;;;;;;;;;;;;;20.27;69.96;100092.84;4977238;28;20365;-74
2022/09/14 04:37:25;;;;;;;;;;;;;;;20.35;69.76;100088.69;4977510;28;20371;-74
2022/09/14 04:39:50;;;;;;;;;;;;;;;20.45;69.70;100086.84;4959487;28;19930;-74
2022/09/14 04:42:16;;;;;;;;;;;;;;;20.39;69.71;100085.75;4959465;28;19964;-74
2022/09/14 04:44:41;;;;;;;;;;;;;;;20.37;70.28;100086.19;4959428;28;20026;-74
2022/09/14 04:47:06;;;;;;;;;;;;;;;20.39;70.59;100082.94;4977031;28;19965;-74
2022/09/14 04:49:31;;;;;;;;;;;;;;;20.37;70.97;100091.06;4959386;28;20289;-74
2022/09/14 04:51:57;;;;;;;;;;;;;;;20.38;70.90;100078.53;4959476;28;19918;-74
2022/09/14 04:54:22;;;;;;;;;;;;;;;20.32;71.33;100080.25;4976545;28;19918;-74
2022/09/14 04:56:47;;;;;;;;;;;;;;;20.44;71.24;100085.25;4959102;28;19918;-74
2022/09/14 04:59:14;;;;;;;;;;;;;;;20.96;70.08;100075.38;4959117;28;19918;-74
2022/09/14 05:01:43;;;;;;;;;;;;;;;21.47;67.99;100087.22;4959033;28;19925;-74
2022/09/14 05:04:10;;;;;;;;;;;;;;;21.89;66.02;100091.88;4976667;28;20345;-74
2022/09/14 05:06:36;;;;;;;;;;;;;;;22.36;64.21;100091.47;4959559;28;20016;-74
2022/09/14 05:09:03;;;;;;;;;;;;;;;22.87;63.25;100091.69;4975766;28;20406;-74
2022/09/14 05:11:30;;;;;;;;;;;;;;;23.31;62.33;100086.34;4958868;28;20358;-74
2022/09/14 05:13:56;;;;;;;;;;;;;;;23.75;59.86;100095.91;4958989;28;19965;-74
2022/09/14 05:16:23;;;;;;;;;;;;;;;24.11;58.83;100097.56;4958685;28;19945;-74
2022/09/14 05:18:50;;;;;;;;;;;;;;;24.38;57.82;100104.81;4975827;28;19957;-73
2022/09/14 05:21:18;;;;;;;;;;;;;;;24.71;56.78;100110.94;4958700;28;19968;-74
2022/09/14 05:23:44;;;;;;;;;;;;;;;25.12;55.40;100095.59;4958600;28;19926;-74
2022/09/14 05:26:09;;;;;;;;;;;;;;;25.57;54.15;100097.91;4958812;28;19926;-74
2022/09/14 05:28:36;;;;;;;;;;;;;;;26.09;52.98;100098.25;4957929;28;20285;-74
2022/09/14 05:31:05;;;;;;;;;;;;;;;26.38;51.63;100097.81;4959274;28;20353;-73
2022/09/14 05:33:31;;;;;;;;;;;;;;;26.87;50.52;100089.13;4958501;28;19950;-75
2022/09/14 05:36:00;;;;;;;;;;;;;;;27.23;49.09;100093.22;4958428;28;19918;-73
2022/09/14 05:38:27;;;;;;;;;;;;;;;27.69;47.82;100110.97;4957594;28;20405;-75
2022/09/14 05:40:53;;;;;;;;;;;;;;;28.22;47.18;100109.59;4954990;29;19930;-75
2022/09/14 05:43:19;;;;;;;;;;;;;;;28.30;46.35;100105.13;4955077;29;20285;-75
2022/09/14 05:45:44;;;;;;;;;;;;;;;28.75;43.98;100110.97;4954724;29;19926;-74
2022/09/14 05:48:09;;;;;;;;;;;;;;;27.98;46.69;100103.09;4954718;29;19976;-75
2022/09/14 05:50:35;;;;;;;;;;;;;;;27.20;46.70;100102.72;4955796;28;19981;-74
2022/09/14 05:53:00;;;;;;;;;;;;;;;27.83;46.77;100115.22;4954971;29;19919;-74
2022/09/14 05:55:26;;;;;;;;;;;;;;;28.01;46.46;100114.34;4955242;29;19919;-75
2022/09/14 05:57:51;;;;;;;;;;;;;;;28.16;45.79;100118.06;4954581;29;19929;-74
2022/09/14 06:00:17;;;;;;;;;;;;;;;28.49;44.79;100111.50;4954553;29;20444;-75
2022/09/14 06:02:49;;;;;;;;;;;;;;;28.95;43.53;100123.41;4954645;29;19919;-75
2022/09/14 06:05:15;;;;;;;;;;;;;;;28.98;41.93;100118.78;4954510;29;19922;-75
2022/09/14 06:07:40;;;;;;;;;;;;;;;29.15;42.49;100122.72;4954483;29;19926;-76
2022/09/14 06:10:06;;;;;;;;;;;;;;;29.87;41.12;100127.31;4954231;29;19919;-76
2022/09/14 06:12:31;;;;;;;;;;;;;;;30.05;41.34;100129.97;4955872;29;20341;-75
2022/09/14 06:14:57;;;;;;;;;;;;;;;30.13;40.68;100116.78;4955790;29;19918;-74
2022/09/14 06:17:22;;;;;;;;;;;;;;;30.12;39.81;100123.81;4955743;28;20009;-74
2022/09/14 06:19:48;;;;;;;;;;;;;;;30.44;39.54;100121.91;4956252;28;19982;-75
2022/09/14 06:22:13;;;;;;;;;;;;;;;30.72;38.99;100119.41;4954358;29;19923;-75
2022/09/14 06:24:38;;;;;;;;;;;;;;;30.78;38.53;100117.38;4954893;29;20392;-75
2022/09/14 06:27:05;;;;;;;;;;;;;;;30.89;38.75;100104.44;4954688;29;20278;-75
2022/09/14 06:29:30;;;;;;;;;;;;;;;31.27;37.66;100112.72;4954564;29;19926;-75
2022/09/14 06:31:55;;;;;;;;;;;;;;;31.56;37.25;100116.63;4955342;29;19918;-75
2022/09/14 06:34:21;;;;;;;;;;;;;;;31.68;36.67;100118.25;4954292;29;20405;-75
2022/09/14 06:36:47;;;;;;;;;;;;;;;31.62;36.22;100117.44;4954541;29;19926;-75
2022/09/14 06:39:12;;;;;;;;;;;;;;;30.63;36.35;100116.69;4954123;29;19922;-75
2022/09/14 06:41:37;;;;;;;;;;;;;;;31.22;36.30;100116.28;4955317;28;19918;-75
2022/09/14 06:44:03;;;;;;;;;;;;;;;30.72;36.85;100116.53;4955198;28;20013;-76
2022/09/14 06:46:29;;;;;;;;;;;;;;;31.14;35.60;100118.03;4953774;29;19918;-75
2022/09/14 06:48:55;;;;;;;;;;;;;;;30.76;37.38;100124.94;4955514;28;19923;-75
2022/09/14 06:51:30;;;;;;;;;;;;;;;31.15;35.87;100133.19;4958463;28;19969;-74
2022/09/14 06:53:59;;;;;;;;;;;;;;;30.89;36.79;100133.16;4957771;29;19919;-76
2022/09/14 06:56:25;;;;;;;;;;;;;;;30.45;37.53;100134.97;4958989;28;19943;-75
2022/09/14 06:58:52;;;;;;;;;;;;;;;31.04;36.78;100140.38;4957755;29;19922;-73
2022/09/14 07:01:21;;;;;;;;;;;;;;;31.03;36.44;100135.16;4959092;28;19918;-74
2022/09/14 07:03:46;;;;;;;;;;;;;;;30.80;37.71;100147.69;4957726;29;20022;-75
2022/09/14 07:06:13;;;;;;;;;;;;;;;30.69;37.45;100140.53;4957583;29;19962;-74
2022/09/14 07:08:39;;;;;;;;;;;;;;;31.19;37.29;100151.78;4959190;28;19926;-73
2022/09/14 07:11:05;;;;;;;;;;;;;;;31.38;37.28;100157.22;4959236;28;20263;-76
2022/09/14 07:13:30;;;;;;;;;;;;;;;31.75;36.63;100158.09;4957977;29;20365;-74
2022/09/14 07:15:56;;;;;;;;;;;;;;;31.99;35.64;100174.22;4958301;29;20494;-74
2022/09/14 07:18:22;;;;;;;;;;;;;;;31.56;37.43;100168.38;4958969;28;20066;-74
2022/09/14 07:20:48;;;;;;;;;;;;;;;32.33;36.00;100158.75;4959191;28;19924;-74
2022/09/14 07:23:13;;;;;;;;;;;;;;;32.14;36.40;100171.97;4957699;29;19924;-75
2022/09/14 07:25:39;;;;;;;;;;;;;;;32.24;36.37;100164.72;4957655;29;19918;-75
2022/09/14 07:28:04;;;;;;;;;;;;;;;31.73;35.99;100166.41;4957861;29;19922;-74
2022/09/14 07:30:29;;;;;;;;;;;;;;;31.53;37.01;100163.63;4958518;28;19965;-74
2022/09/14 07:32:54;;;;;;;;;;;;;;;31.32;38.00;100176.47;4959168;28;19925;-74
2022/09/14 07:35:20;;;;;;;;;;;;;;;30.88;38.26;100183.28;4958287;28;19919;-74
2022/09/14 07:37:45;;;;;;;;;;;;;;;30.98;38.70;100181.84;4957663;29;19919;-74
2022/09/14 07:40:11;;;;;;;;;;;;;;;30.90;39.01;100181.50;4957177;29;19922;-74
2022/09/14 07:42:36;;;;;;;;;;;;;;;31.06;38.31;100182.22;4958863;28;19928;-74
2022/09/14 07:45:02;;;;;;;;;;;;;;;31.18;39.13;100183.91;4957606;29;20057;-74
2022/09/14 07:47:28;;;;;;;;;;;;;;;30.68;39.98;100186.94;4957806;29;19919;-74
2022/09/14 07:49:53;;;;;;;;;;;;;;;30.55;40.20;100190.16;4957732;29;19930;-75
2022/09/14 07:52:19;;;;;;;;;;;;;;;30.53;40.49;100198.50;4958620;28;19955;-75
2022/09/14 07:54:44;;;;;;;;;;;;;;;30.50;40.65;100193.75;4957013;29;19974;-74
2022/09/14 07:57:09;;;;;;;;;;;;;;;31.32;39.42;100187.97;4958109;28;19922;-75
2022/09/14 07:59:35;;;;;;;;;;;;;;;31.47;40.06;100188.66;4957628;29;19985;-75
2022/09/14 08:02:00;;;;;;;;;;;;;;;31.35;40.57;100187.78;4957627;28;19958;-75
2022/09/14 08:04:26;;;;;;;;;;;;;;;32.22;39.00;100193.22;4957978;28;19925;-75
2022/09/14 08:06:51;;;;;;;;;;;;;;;32.42;38.48;100197.31;4958062;28;19918;-74
2022/09/14 08:09:16;;;;;;;;;;;;;;;31.25;40.49;100201.50;4957871;28;19925;-75
2022/09/14 08:11:41;;;;;;;;;;;;;;;31.63;39.81;100199.53;4957752;28;20356;-75
2022/09/14 08:14:12;;;;;;;;;;;;;;;32.14;38.59;100194.22;4956720;29;19974;-75
2022/09/14 08:16:39;;;;;;;;;;;;;;;31.85;39.93;100192.41;4956830;29;19940;-75
2022/09/14 08:19:05;;;;;;;;;;;;;;;32.85;37.85;100186.50;4958297;28;19923;-74
2022/09/14 08:21:31;;;;;;;;;;;;;;;32.44;38.47;100188.94;4957471;28;19918;-76
2022/09/14 08:23:57;;;;;;;;;;;;;;;32.55;38.60;100194.78;4957663;28;19925;-75
2022/09/14 08:26:23;;;;;;;;;;;;;;;31.16;40.68;100187.28;4956149;29;19961;-73
2022/09/14 08:28:49;;;;;;;;;;;;;;;32.44;38.75;100188.94;4956358;29;19918;-75
2022/09/14 08:31:16;;;;;;;;;;;;;;;31.77;40.08;100187.13;4958322;28;19930;-75
2022/09/14 08:33:45;;;;;;;;;;;;;;;31.74;39.76;100185.25;4956497;29;19973;-74
2022/09/14 08:36:13;;;;;;;;;;;;;;;31.48;40.38;100184.47;4957889;28;20285;-74
2022/09/14 08:38:38;;;;;;;;;;;;;;;31.56;39.88;100185.63;4956003;29;19918;-75
2022/09/14 08:41:06;;;;;;;;;;;;;;;32.02;39.20;100199.91;4976108;28;20029;-75
2022/09/14 08:43:32;;;;;;;;;;;;;;;31.48;40.02;100193.09;4959024;28;20013;-74
2022/09/14 08:46:01;;;;;;;;;;;;;;;31.45;39.43;100191.28;4976006;28;20013;-72
2022/09/14 08:48:33;;;;;;;;;;;;;;;32.00;38.58;100195.94;4959602;28;20431;-75
2022/09/14 08:50:59;;;;;;;;;;;;;;;32.54;37.38;100188.19;4959122;28;19918;-74
2022/09/14 08:53:24;;;;;;;;;;;;;;;32.64;35.52;100203.16;4959082;28;19922;-74
2022/09/14 08:56:01;;;;;;;;;;;;;;;33.21;35.57;100201.34;4959098;28;19925;-74
2022/09/14 08:58:26;;;;;;;;;;;;;;;33.72;34.67;100208.78;4959014;28;19918;-74
2022/09/14 09:01:11;;;;;;;;;;;;;;;32.38;37.40;100211.94;4958862;28;20340;-74
2022/09/14 09:03:43;;;;;;;;;;;;;;;32.17;37.82;100219.09;4976234;28;19925;-74
2022/09/14 09:06:14;;;;;;;;;;;;;;;31.61;37.72;100222.25;4976740;28;20006;-74
2022/09/14 09:08:45;;;;;;;;;;;;;;;32.48;36.44;100227.69;4958769;28;19925;-75
2022/09/14 09:11:16;;;;;;;;;;;;;;;32.92;35.59;100237.09;4958653;28;20017;-74
2022/09/14 09:13:43;;;;;;;;;;;;;;;33.67;33.57;100235.53;4975356;28;19919;-75
2022/09/14 09:16:09;;;;;;;;;;;;;;;34.14;29.03;100250.25;4976659;28;19924;-74
2022/09/14 09:18:59;;;;;;;;;;;;;;;33.70;31.42;100246.00;4976284;28;19922;-73
2022/09/14 09:21:44;;;;;;;;;;;;;;;33.65;31.17;100243.91;4976379;28;19918;-74
2022/09/14 09:24:28;;;;;;;;;;;;;;;34.10;30.36;100249.75;4958862;28;19918;-74
2022/09/14 09:26:54;;;;;;;;;;;;;;;33.51;29.60;100245.75;4958749;28;19922;-75
2022/09/14 09:29:19;;;;;;;;;;;;;;;33.44;31.16;100252.00;4958271;28;20424;-74
2022/09/14 09:31:47;;;;;;;;;;;;;;;34.14;31.09;100251.06;4958322;28;19918;-75
2022/09/14 09:34:14;;;;;;;;;;;;;;;33.65;31.11;100243.91;4958961;28;19970;-74
2022/09/14 09:36:42;;;;;;;;;;;;;;;33.42;30.28;100250.94;4958277;28;19918;-73
2022/09/14 09:39:07;;;;;;;;;;;;;;;33.08;30.55;100242.19;4957875;28;19922;-74
2022/09/14 09:41:42;;;;;;;;;;;;;;;32.59;30.96;100244.25;4957702;28;19918;-75
2022/09/14 09:44:09;;;;;;;;;;;;;;;32.80;30.81;100239.91;4957996;28;19918;-73
2022/09/14 09:46:49;;;;;;;;;;;;;;;33.04;31.44;100238.75;4957739;28;19929;-73
2022/09/14 09:49:20;;;;;;;;;;;;;;;33.56;29.81;100244.19;4958357;28;19929;-72
2022/09/14 09:51:46;;;;;;;;;;;;;;;33.77;30.61;100251.28;4975780;28;19944;-74
2022/09/14 09:54:11;;;;;;;;;;;;;;;33.86;27.89;100256.78;4957772;28;20017;-74
2022/09/14 09:56:39;;;;;;;;;;;;;;;33.86;26.74;100256.00;4957594;28;19918;-73
2022/09/14 09:59:21;;;;;;;;;;;;;;;34.66;23.96;100256.22;4975599;28;20288;-73
2022/09/14 10:01:46;;;;;;;;;;;;;;;35.08;22.95;100247.72;4973970;28;19925;-73
2022/09/14 10:04:17;;;;;;;;;;;;;;;34.99;24.85;100253.78;4974471;28;19918;-73
2022/09/14 10:06:44;;;;;;;;;;;;;;;35.46;23.68;100251.72;4957222;28;19929;-74
2022/09/14 10:09:18;;;;;;;;;;;;;;;34.84;24.50;100254.09;4957470;28;20009;-72
2022/09/14 10:11:44;;;;;;;;;;;;;;;34.73;24.55;100257.00;4975139;28;19925;-74
2022/09/14 10:14:32;;;;;;;;;;;;;;;35.36;24.46;100259.91;4974074;28;19925;-73
2022/09/14 10:17:06;;;;;;;;;;;;;;;34.86;24.19;100257.22;4974880;28;19918;-74
2022/09/14 10:19:32;;;;;;;;;;;;;;;35.43;22.33;100265.13;4974894;28;20451;-73
2022/09/14 10:22:03;;;;;;;;;;;;;;;35.58;22.03;100258.22;4957322;28;19930;-74
2022/09/14 10:24:30;;;;;;;;;;;;;;;35.73;22.76;100258.66;4957960;28;19922;-74
2022/09/14 10:26:56;;;;;;;;;;;;;;;35.51;22.75;100253.03;4981595;28;19918;-74
2022/09/14 10:29:21;;;;;;;;;;;;;;;35.81;23.12;100253.88;4963863;28;19968;-73
2022/09/14 10:31:47;;;;;;;;;;;;;;;34.47;23.20;100248.69;4981669;28;19922;-74
2022/09/14 10:34:18;;;;;;;;;;;;;;;35.45;22.89;100255.94;4964375;28;20025;-75
2022/09/14 10:36:49;;;;;;;;;;;;;;;35.13;22.92;100255.56;4963717;28;19918;-73
2022/09/14 10:39:20;;;;;;;;;;;;;;;35.15;23.04;100252.91;4963754;28;20016;-75
2022/09/14 10:42:00;;;;;;;;;;;;;;;34.72;23.00;100249.66;4963104;28;20236;-73
2022/09/14 10:44:42;;;;;;;;;;;;;;;34.85;23.01;100247.78;4981487;28;20384;-74
2022/09/14 10:47:10;;;;;;;;;;;;;;;34.09;24.39;100239.47;4980947;28;19925;-74
2022/09/14 10:49:46;;;;;;;;;;;;;;;34.56;23.45;100233.94;4981413;28;19925;-73
2022/09/14 10:52:18;;;;;;;;;;;;;;;33.80;24.32;100223.47;4963627;28;19925;-74
2022/09/14 10:54:54;;;;;;;;;;;;;;;34.46;24.52;100224.75;4964601;28;19922;-74
2022/09/14 10:57:35;;;;;;;;;;;;;;;34.25;24.73;100212.72;4964116;28;19919;-75
2022/09/14 11:00:05;;;;;;;;;;;;;;;33.30;25.78;100201.88;4964968;28;19969;-73
2022/09/14 11:02:31;;;;;;;;;;;;;;;33.37;25.74;100212.13;4965425;28;20309;-75
2022/09/14 11:05:15;;;;;;;;;;;;;;;33.07;24.14;100211.75;4982127;28;19918;-74
2022/09/14 11:08:06;;;;;;;;;;;;;;;33.55;24.87;100211.63;4963974;28;20369;-74
2022/09/14 11:10:39;;;;;;;;;;;;;;;33.62;26.52;100214.03;4964840;28;19918;-73
2022/09/14 11:13:04;;;;;;;;;;;;;;;33.68;26.66;100213.25;4964111;28;19964;-74
2022/09/14 11:15:45;;;;;;;;;;;;;;;32.95;27.36;100213.03;4963836;28;19953;-74
2022/09/14 11:18:18;;;;;;;;;;;;;;;33.08;26.78;100207.59;4981200;28;19925;-73
2022/09/14 11:20:43;;;;;;;;;;;;;;;33.68;26.19;100208.25;4964044;28;19918;-73
2022/09/14 11:23:27;;;;;;;;;;;;;;;33.08;26.63;100210.47;4963721;28;19977;-73
2022/09/14 11:25:58;;;;;;;;;;;;;;;33.28;26.46;100210.25;4981405;28;19969;-73
2022/09/14 11:28:26;;;;;;;;;;;;;;;33.15;26.24;100221.50;4963965;28;19918;-73
2022/09/14 11:30:59;;;;;;;;;;;;;;;32.12;27.33;100220.66;4980226;28;19918;-73
2022/09/14 11:33:27;;;;;;;;;;;;;;;33.01;26.81;100202.31;4980505;28;19973;-74
2022/09/14 11:35:59;;;;;;;;;;;;;;;32.61;27.81;100209.97;4979324;28;20439;-74
2022/09/14 11:38:29;;;;;;;;;;;;;;;32.50;25.02;100212.81;4977135;28;19969;-73
2022/09/14 11:41:07;;;;;;;;;;;;;;;32.14;27.41;100212.28;4956677;29;19933;-73
2022/09/14 11:43:41;;;;;;;;;;;;;;;32.55;24.13;100209.16;4956582;29;20461;-73
2022/09/14 11:46:09;;;;;;;;;;;;;;;32.79;25.69;100208.75;4957231;29;20357;-74
2022/09/14 11:48:40;;;;;;;;;;;;;;;32.82;26.67;100202.75;4958279;28;19934;-73
2022/09/14 11:51:12;;;;;;;;;;;;;;;32.64;26.37;100199.50;4957418;29;20376;-73
2022/09/14 11:53:39;;;;;;;;;;;;;;;32.92;26.54;100200.47;4957339;29;20429;-74
2022/09/14 11:56:05;;;;;;;;;;;;;;;32.88;27.01;100202.00;4957276;29;20362;-74
2022/09/14 11:58:30;;;;;;;;;;;;;;;33.31;27.01;100196.91;4958651;28;20009;-74
2022/09/14 12:00:59;;;;;;;;;;;;;;;33.41;27.14;100197.44;4957484;29;19926;-72
2022/09/14 12:03:44;;;;;;;;;;;;;;;32.59;26.38;100198.19;4958219;28;19922;-74
2022/09/14 12:06:28;;;;;;;;;;;;;;;32.40;26.83;100199.91;4956983;29;19946;-74
2022/09/14 12:08:53;;;;;;;;;;;;;;;32.28;28.09;100202.69;4958731;29;19922;-72
2022/09/14 12:11:23;;;;;;;;;;;;;;;32.32;28.25;100200.34;4956818;29;20250;-72
2022/09/14 12:14:09;;;;;;;;;;;;;;;31.77;28.53;100197.84;4957567;29;20377;-73
2022/09/14 12:16:54;;;;;;;;;;;;;;;32.17;28.34;100201.81;4956328;29;19922;-72
2022/09/14 12:19:20;;;;;;;;;;;;;;;32.40;27.61;100199.91;4958424;29;19973;-72
2022/09/14 12:21:45;;;;;;;;;;;;;;;32.68;27.45;100197.97;4958268;28;19918;-73
2022/09/14 12:24:14;;;;;;;;;;;;;;;32.54;28.25;100193.97;4957488;29;20277;-74
2022/09/14 12:26:39;;;;;;;;;;;;;;;32.78;27.06;100190.69;4956525;29;19925;-72
2022/09/14 12:29:22;;;;;;;;;;;;;;;31.85;28.46;100201.06;4957094;29;19919;-73
2022/09/14 12:31:51;;;;;;;;;;;;;;;31.94;26.24;100198.78;4956699;29;19919;-72
2022/09/14 12:34:18;;;;;;;;;;;;;;;31.69;26.53;100191.72;4956257;29;19919;-72
2022/09/14 12:36:43;;;;;;;;;;;;;;;32.24;27.44;100204.25;4957028;29;19936;-73
2022/09/14 12:39:21;;;;;;;;;;;;;;;32.20;27.12;100195.84;4956177;28;20358;-73
2022/09/14 12:41:47;;;;;;;;;;;;;;;32.28;27.27;100199.81;4958127;28;19930;-73